createdAt,value
2019-02-16T00:00:06.181Z,1023.89
2019-02-16T00:01:21.233Z,1023.91
2019-02-16T00:04:11.745Z,1023.84
2019-02-16T00:07:15.237Z,1023.87
2019-02-16T00:11:18.468Z,1023.88
2019-02-16T00:12:31.422Z,1023.87
2019-02-16T00:13:18.467Z,1023.92
2019-02-16T00:14:20.225Z,1023.89
2019-02-16T00:15:19.102Z,1023.90
2019-02-16T00:16:19.151Z,1023.90
2019-02-16T00:17:21.539Z,1023.87
2019-02-16T00:18:18.628Z,1023.86
2019-02-16T00:19:19.252Z,1023.90
2019-02-16T00:22:41.001Z,1023.84
2019-02-16T00:23:42.991Z,1023.81
2019-02-16T00:24:42.085Z,1023.78
2019-02-16T00:25:42.010Z,1023.81
2019-02-16T00:26:42.227Z,1023.78
2019-02-16T00:27:41.499Z,1023.78
2019-02-16T00:28:41.401Z,1023.77
2019-02-16T00:29:41.400Z,1023.75
2019-02-16T00:30:42.609Z,1023.73
2019-02-16T00:31:41.191Z,1023.74
2019-02-16T00:32:41.473Z,1023.75
2019-02-16T00:33:40.816Z,1023.73
2019-02-16T00:34:40.814Z,1023.67
2019-02-16T00:35:40.813Z,1023.66
2019-02-16T00:36:40.815Z,1023.67
2019-02-16T00:37:40.806Z,1023.64
2019-02-16T00:38:40.760Z,1023.65
2019-02-16T00:39:40.755Z,1023.66
2019-02-16T00:40:40.750Z,1023.63
2019-02-16T00:41:40.729Z,1023.63
2019-02-16T00:42:40.733Z,1023.63
2019-02-16T00:43:40.716Z,1023.62
2019-02-16T00:44:40.716Z,1023.60
2019-02-16T00:45:40.700Z,1023.65
2019-02-16T00:46:40.698Z,1023.64
2019-02-16T00:47:40.664Z,1023.59
2019-02-16T00:48:40.656Z,1023.58
2019-02-16T00:49:40.673Z,1023.62
2019-02-16T00:50:40.654Z,1023.60
2019-02-16T00:51:40.628Z,1023.62
2019-02-16T00:52:40.624Z,1023.61
2019-02-16T00:53:40.616Z,1023.59
2019-02-16T00:54:40.610Z,1023.57
2019-02-16T00:55:40.577Z,1023.53
2019-02-16T00:56:48.606Z,1023.52
2019-02-16T00:57:41.323Z,1023.55
2019-02-16T00:58:40.556Z,1023.52
2019-02-16T00:59:40.866Z,1023.54
2019-02-16T01:00:40.724Z,1023.54
2019-02-16T01:01:40.506Z,1023.59
2019-02-16T01:02:40.483Z,1023.53
2019-02-16T01:03:40.513Z,1023.54
2019-02-16T01:04:40.540Z,1023.58
2019-02-16T01:05:40.455Z,1023.53
2019-02-16T01:06:40.506Z,1023.46
2019-02-16T01:07:41.334Z,1023.48
2019-02-16T01:08:40.456Z,1023.47
2019-02-16T01:09:40.471Z,1023.41
2019-02-16T01:10:40.453Z,1023.49
2019-02-16T01:11:40.418Z,1023.46
2019-02-16T01:12:40.394Z,1023.40
2019-02-16T01:13:40.391Z,1023.34
2019-02-16T01:14:40.402Z,1023.29
2019-02-16T01:15:40.372Z,1023.28
2019-02-16T01:16:40.374Z,1023.29
2019-02-16T01:17:40.395Z,1023.19
2019-02-16T01:18:40.352Z,1023.27
2019-02-16T01:19:40.338Z,1023.24
2019-02-16T01:20:40.322Z,1023.23
2019-02-16T01:21:40.301Z,1023.20
2019-02-16T01:22:40.317Z,1023.21
2019-02-16T01:23:40.276Z,1023.19
2019-02-16T01:24:40.276Z,1023.17
2019-02-16T01:25:40.295Z,1023.16
2019-02-16T01:26:40.248Z,1023.14
2019-02-16T01:27:40.252Z,1023.14
2019-02-16T01:28:40.257Z,1023.15
2019-02-16T01:29:40.234Z,1023.12
2019-02-16T01:30:40.816Z,1023.12
2019-02-16T01:31:40.177Z,1023.12
2019-02-16T01:32:40.176Z,1023.12
2019-02-16T01:33:40.181Z,1023.09
2019-02-16T01:34:40.160Z,1023.09
2019-02-16T01:35:40.142Z,1023.07
2019-02-16T01:36:40.174Z,1023.07
2019-02-16T01:37:40.138Z,1023.07
2019-02-16T01:38:40.125Z,1023.00
2019-02-16T01:39:40.199Z,1023.01
2019-02-16T01:40:40.196Z,1023.02
2019-02-16T01:41:40.081Z,1023.02
2019-02-16T01:42:40.105Z,1023.03
2019-02-16T01:43:40.062Z,1022.97
2019-02-16T01:44:40.102Z,1022.98
2019-02-16T01:45:40.071Z,1022.94
2019-02-16T01:46:40.016Z,1022.98
2019-02-16T01:47:40.061Z,1022.94
2019-02-16T01:48:40.037Z,1022.93
2019-02-16T01:49:40.014Z,1022.93
2019-02-16T01:50:39.998Z,1022.98
2019-02-16T01:51:39.955Z,1022.93
2019-02-16T01:52:39.953Z,1022.91
2019-02-16T01:53:39.976Z,1022.94
2019-02-16T01:54:39.976Z,1022.93
2019-02-16T01:55:39.941Z,1022.93
2019-02-16T01:56:39.938Z,1022.92
2019-02-16T01:57:39.938Z,1022.89
2019-02-16T01:58:39.899Z,1022.90
2019-02-16T01:59:39.905Z,1022.89
2019-02-16T02:00:39.907Z,1022.91
2019-02-16T02:01:39.863Z,1022.85
2019-02-16T02:02:39.846Z,1022.82
2019-02-16T02:03:39.852Z,1022.80
2019-02-16T02:04:39.843Z,1022.78
2019-02-16T02:05:39.866Z,1022.78
2019-02-16T02:06:39.839Z,1022.77
2019-02-16T02:07:39.837Z,1022.79
2019-02-16T02:08:40.335Z,1022.73
2019-02-16T02:09:39.848Z,1022.76
2019-02-16T02:10:39.880Z,1022.74
2019-02-16T02:11:39.809Z,1022.74
2019-02-16T02:12:39.756Z,1022.70
2019-02-16T02:13:39.724Z,1022.69
2019-02-16T02:14:39.734Z,1022.71
2019-02-16T02:15:39.736Z,1022.70
2019-02-16T02:16:39.775Z,1022.66
2019-02-16T02:17:39.789Z,1022.67
2019-02-16T02:18:39.674Z,1022.69
2019-02-16T02:19:39.664Z,1022.67
2019-02-16T02:20:39.678Z,1022.66
2019-02-16T02:21:41.465Z,1022.67
2019-02-16T02:22:39.649Z,1022.65
2019-02-16T02:23:39.670Z,1022.59
2019-02-16T02:24:39.617Z,1022.60
2019-02-16T02:25:39.606Z,1022.64
2019-02-16T02:26:39.621Z,1022.66
2019-02-16T02:27:39.585Z,1022.64
2019-02-16T02:28:39.598Z,1022.62
2019-02-16T02:29:39.614Z,1022.59
2019-02-16T02:30:39.597Z,1022.59
2019-02-16T02:31:39.587Z,1022.56
2019-02-16T02:32:39.621Z,1022.58
2019-02-16T02:33:39.605Z,1022.59
2019-02-16T02:34:39.612Z,1022.56
2019-02-16T02:35:39.595Z,1022.58
2019-02-16T02:36:39.509Z,1022.61
2019-02-16T02:37:39.504Z,1022.58
2019-02-16T02:38:39.450Z,1022.60
2019-02-16T02:39:39.457Z,1022.56
2019-02-16T02:40:39.611Z,1022.54
2019-02-16T02:41:39.459Z,1022.53
2019-02-16T02:42:46.484Z,1022.50
2019-02-16T02:44:55.997Z,1022.48
2019-02-16T02:45:56.019Z,1022.51
2019-02-16T02:46:56.012Z,1022.50
2019-02-16T02:48:03.905Z,1022.43
2019-02-16T02:48:55.998Z,1022.45
2019-02-16T02:49:55.945Z,1022.46
2019-02-16T02:50:55.962Z,1022.44
2019-02-16T02:51:55.945Z,1022.45
2019-02-16T02:52:56.618Z,1022.40
2019-02-16T02:53:55.901Z,1022.37
2019-02-16T02:54:55.922Z,1022.37
2019-02-16T02:55:55.900Z,1022.37
2019-02-16T02:56:55.889Z,1022.36
2019-02-16T02:57:55.848Z,1022.36
2019-02-16T02:58:55.874Z,1022.33
2019-02-16T02:59:55.846Z,1022.34
2019-02-16T03:00:57.481Z,1022.39
2019-02-16T03:01:55.819Z,1022.32
2019-02-16T03:02:55.809Z,1022.35
2019-02-16T03:03:55.803Z,1022.35
2019-02-16T03:04:55.777Z,1022.32
2019-02-16T03:05:55.813Z,1022.33
2019-02-16T03:07:04.310Z,1022.33
2019-02-16T03:07:55.762Z,1022.32
2019-02-16T03:08:55.765Z,1022.29
2019-02-16T03:09:55.771Z,1022.33
2019-02-16T03:10:55.735Z,1022.33
2019-02-16T03:11:55.713Z,1022.28
2019-02-16T03:12:55.694Z,1022.32
2019-02-16T03:13:55.689Z,1022.31
2019-02-16T03:14:55.689Z,1022.32
2019-02-16T03:15:55.695Z,1022.27
2019-02-16T03:16:55.669Z,1022.30
2019-02-16T03:17:55.657Z,1022.27
2019-02-16T03:18:55.649Z,1022.20
2019-02-16T03:19:55.669Z,1022.25
2019-02-16T03:20:55.652Z,1022.21
2019-02-16T03:22:02.474Z,1022.25
2019-02-16T03:22:56.593Z,1022.28
2019-02-16T03:23:55.586Z,1022.22
2019-02-16T03:24:55.590Z,1022.29
2019-02-16T03:25:55.605Z,1022.25
2019-02-16T03:26:55.555Z,1022.29
2019-02-16T03:27:55.556Z,1022.27
2019-02-16T03:28:55.540Z,1022.21
2019-02-16T03:29:55.541Z,1022.24
2019-02-16T03:30:55.547Z,1022.19
2019-02-16T03:31:55.521Z,1022.16
2019-02-16T03:32:55.477Z,1022.19
2019-02-16T03:33:55.515Z,1022.19
2019-02-16T03:34:55.490Z,1022.12
2019-02-16T03:35:55.683Z,1022.15
2019-02-16T03:36:55.461Z,1022.11
2019-02-16T03:37:55.412Z,1022.16
2019-02-16T03:38:55.435Z,1022.14
2019-02-16T03:39:55.425Z,1022.17
2019-02-16T03:40:55.414Z,1022.15
2019-02-16T03:41:55.404Z,1022.19
2019-02-16T03:42:55.371Z,1022.19
2019-02-16T03:43:55.401Z,1022.22
2019-02-16T03:44:55.387Z,1022.19
2019-02-16T03:45:55.362Z,1022.12
2019-02-16T03:46:55.379Z,1022.21
2019-02-16T03:47:55.343Z,1022.18
2019-02-16T03:48:55.312Z,1022.19
2019-02-16T03:49:55.306Z,1022.19
2019-02-16T03:51:02.997Z,1022.16
2019-02-16T03:52:12.877Z,1022.16
2019-02-16T03:54:05.981Z,1022.12
2019-02-16T03:55:13.763Z,1022.14
2019-02-16T03:56:13.021Z,1022.07
2019-02-16T03:57:12.974Z,1022.11
2019-02-16T03:58:14.916Z,1022.10
2019-02-16T04:00:16.535Z,1022.09
2019-02-16T04:01:23.507Z,1022.13
2019-02-16T04:02:23.519Z,1022.08
2019-02-16T04:03:25.380Z,1022.01
2019-02-16T04:04:24.896Z,1022.09
2019-02-16T04:05:23.447Z,1022.04
2019-02-16T04:06:23.971Z,1022.03
2019-02-16T04:07:16.448Z,1022.09
2019-02-16T04:08:16.443Z,1022.03
2019-02-16T04:09:16.373Z,1022.08
2019-02-16T04:10:16.375Z,1022.08
2019-02-16T04:11:16.345Z,1022.10
2019-02-16T04:12:16.364Z,1022.08
2019-02-16T04:13:16.313Z,1022.06
2019-02-16T04:14:16.320Z,1022.05
2019-02-16T04:15:16.317Z,1022.03
2019-02-16T04:16:16.310Z,1022.02
2019-02-16T04:17:16.312Z,1021.94
2019-02-16T04:18:16.295Z,1021.95
2019-02-16T04:19:16.270Z,1021.93
2019-02-16T04:20:16.247Z,1021.91
2019-02-16T04:21:16.255Z,1021.86
2019-02-16T04:22:24.330Z,1021.82
2019-02-16T04:23:17.243Z,1021.86
2019-02-16T04:24:16.246Z,1021.88
2019-02-16T04:25:16.211Z,1021.81
2019-02-16T04:26:16.203Z,1021.87
2019-02-16T04:27:16.229Z,1021.82
2019-02-16T04:28:16.202Z,1021.85
2019-02-16T04:29:16.206Z,1021.80
2019-02-16T04:30:16.177Z,1021.86
2019-02-16T04:31:16.139Z,1021.77
2019-02-16T04:32:16.502Z,1021.78
2019-02-16T04:33:16.151Z,1021.68
2019-02-16T04:34:16.135Z,1021.70
2019-02-16T04:35:16.097Z,1021.69
2019-02-16T04:36:16.089Z,1021.67
2019-02-16T04:37:16.133Z,1021.69
2019-02-16T04:38:16.071Z,1021.68
2019-02-16T04:39:16.076Z,1021.65
2019-02-16T04:40:23.080Z,1021.64
2019-02-16T04:41:16.042Z,1021.59
2019-02-16T04:42:16.048Z,1021.58
2019-02-16T04:43:16.046Z,1021.54
2019-02-16T04:44:16.056Z,1021.59
2019-02-16T04:45:15.999Z,1021.57
2019-02-16T04:46:15.987Z,1021.57
2019-02-16T04:47:15.990Z,1021.54
2019-02-16T04:48:15.988Z,1021.54
2019-02-16T04:49:15.942Z,1021.57
2019-02-16T04:50:15.951Z,1021.56
2019-02-16T04:51:15.954Z,1021.55
2019-02-16T04:52:15.924Z,1021.51
2019-02-16T04:53:15.946Z,1021.55
2019-02-16T04:54:15.890Z,1021.52
2019-02-16T04:55:15.890Z,1021.55
2019-02-16T04:56:15.875Z,1021.55
2019-02-16T04:57:15.882Z,1021.56
2019-02-16T04:58:15.913Z,1021.54
2019-02-16T04:59:15.822Z,1021.52
2019-02-16T05:00:15.837Z,1021.54
2019-02-16T05:01:15.849Z,1021.46
2019-02-16T05:02:15.831Z,1021.49
2019-02-16T05:03:15.905Z,1021.46
2019-02-16T05:04:15.810Z,1021.47
2019-02-16T05:05:15.778Z,1021.49
2019-02-16T05:06:15.768Z,1021.49
2019-02-16T05:07:15.768Z,1021.44
2019-02-16T05:08:15.748Z,1021.47
2019-02-16T05:09:15.760Z,1021.50
2019-02-16T05:10:15.731Z,1021.41
2019-02-16T05:11:15.696Z,1021.44
2019-02-16T05:12:15.699Z,1021.44
2019-02-16T05:13:15.705Z,1021.42
2019-02-16T05:14:16.491Z,1021.40
2019-02-16T05:15:15.686Z,1021.36
2019-02-16T05:16:15.668Z,1021.33
2019-02-16T05:17:15.660Z,1021.36
2019-02-16T05:18:15.671Z,1021.39
2019-02-16T05:19:15.651Z,1021.35
2019-02-16T05:20:16.497Z,1021.35
2019-02-16T05:21:15.616Z,1021.33
2019-02-16T05:22:15.626Z,1021.36
2019-02-16T05:23:15.604Z,1021.34
2019-02-16T05:24:16.002Z,1021.32
2019-02-16T05:25:15.577Z,1021.32
2019-02-16T05:26:15.558Z,1021.30
2019-02-16T05:27:15.562Z,1021.26
2019-02-16T05:28:15.536Z,1021.25
2019-02-16T05:29:15.555Z,1021.22
2019-02-16T05:30:16.533Z,1021.21
2019-02-16T05:31:15.550Z,1021.22
2019-02-16T05:32:15.495Z,1021.27
2019-02-16T05:33:15.497Z,1021.24
2019-02-16T05:34:15.512Z,1021.25
2019-02-16T05:35:15.468Z,1021.25
2019-02-16T05:36:15.468Z,1021.28
2019-02-16T05:37:15.439Z,1021.22
2019-02-16T05:38:15.448Z,1021.25
2019-02-16T05:39:15.438Z,1021.24
2019-02-16T05:40:15.408Z,1021.25
2019-02-16T05:41:15.402Z,1021.24
2019-02-16T05:42:15.411Z,1021.29
2019-02-16T05:43:15.416Z,1021.27
2019-02-16T05:44:15.397Z,1021.24
2019-02-16T05:45:15.342Z,1021.25
2019-02-16T05:46:15.339Z,1021.27
2019-02-16T05:47:15.356Z,1021.23
2019-02-16T05:48:15.385Z,1021.24
2019-02-16T05:49:15.354Z,1021.26
2019-02-16T05:50:15.301Z,1021.26
2019-02-16T05:51:15.290Z,1021.26
2019-02-16T05:52:15.285Z,1021.24
2019-02-16T05:53:16.018Z,1021.26
2019-02-16T05:54:15.277Z,1021.26
2019-02-16T05:55:15.846Z,1021.25
2019-02-16T05:56:16.234Z,1021.28
2019-02-16T05:57:15.246Z,1021.24
2019-02-16T05:58:15.639Z,1021.27
2019-02-16T05:59:16.477Z,1021.20
2019-02-16T06:00:15.438Z,1021.22
2019-02-16T06:01:16.155Z,1021.24
2019-02-16T06:02:15.494Z,1021.25
2019-02-16T06:04:45.601Z,1021.28
2019-02-16T06:05:47.434Z,1021.26
2019-02-16T06:07:56.317Z,1021.25
2019-02-16T06:08:56.304Z,1021.24
2019-02-16T06:09:56.335Z,1021.22
2019-02-16T06:10:56.269Z,1021.18
2019-02-16T06:11:56.278Z,1021.16
2019-02-16T06:14:25.240Z,1021.15
2019-02-16T06:15:25.018Z,1021.13
2019-02-16T06:16:24.923Z,1021.11
2019-02-16T06:17:24.927Z,1021.16
2019-02-16T06:18:24.880Z,1021.15
2019-02-16T06:19:24.877Z,1021.16
2019-02-16T06:20:24.876Z,1021.21
2019-02-16T06:21:24.842Z,1021.20
2019-02-16T06:22:24.847Z,1021.19
2019-02-16T06:23:24.846Z,1021.19
2019-02-16T06:24:24.872Z,1021.19
2019-02-16T06:25:24.819Z,1021.18
2019-02-16T06:26:24.768Z,1021.17
2019-02-16T06:27:24.774Z,1021.05
2019-02-16T06:28:24.764Z,1021.16
2019-02-16T06:29:24.754Z,1021.18
2019-02-16T06:30:24.745Z,1021.19
2019-02-16T06:31:24.763Z,1021.15
2019-02-16T06:32:24.740Z,1021.12
2019-02-16T06:33:24.723Z,1021.10
2019-02-16T06:34:24.695Z,1021.07
2019-02-16T06:35:24.729Z,1021.09
2019-02-16T06:36:25.214Z,1021.18
2019-02-16T06:37:24.646Z,1021.16
2019-02-16T06:38:24.708Z,1021.21
2019-02-16T06:39:24.686Z,1021.22
2019-02-16T06:40:24.685Z,1021.21
2019-02-16T06:41:24.640Z,1021.22
2019-02-16T06:42:24.626Z,1021.25
2019-02-16T06:43:24.616Z,1021.24
2019-02-16T06:44:24.585Z,1021.27
2019-02-16T06:45:24.598Z,1021.20
2019-02-16T06:46:24.560Z,1021.26
2019-02-16T06:47:24.548Z,1021.26
2019-02-16T06:48:24.583Z,1021.29
2019-02-16T06:49:24.541Z,1021.31
2019-02-16T06:50:24.563Z,1021.29
2019-02-16T06:51:24.503Z,1021.29
2019-02-16T06:52:24.501Z,1021.32
2019-02-16T06:53:24.496Z,1021.36
2019-02-16T06:54:24.481Z,1021.35
2019-02-16T06:55:24.489Z,1021.31
2019-02-16T06:56:24.467Z,1021.42
2019-02-16T06:57:24.501Z,1021.40
2019-02-16T06:58:24.437Z,1021.41
2019-02-16T06:59:24.457Z,1021.44
2019-02-16T07:00:24.437Z,1021.42
2019-02-16T07:01:24.413Z,1021.38
2019-02-16T07:02:24.407Z,1021.32
2019-02-16T07:03:24.417Z,1021.34
2019-02-16T07:04:24.391Z,1021.34
2019-02-16T07:05:24.382Z,1021.35
2019-02-16T07:06:24.377Z,1021.31
2019-02-16T07:07:24.346Z,1021.35
2019-02-16T07:08:24.356Z,1021.38
2019-02-16T07:09:24.310Z,1021.34
2019-02-16T07:10:24.314Z,1021.36
2019-02-16T07:11:24.306Z,1021.32
2019-02-16T07:12:24.298Z,1021.38
2019-02-16T07:13:24.286Z,1021.37
2019-02-16T07:14:24.277Z,1021.37
2019-02-16T07:15:24.276Z,1021.36
2019-02-16T07:16:24.258Z,1021.35
2019-02-16T07:17:24.244Z,1021.33
2019-02-16T07:18:24.268Z,1021.36
2019-02-16T07:19:24.218Z,1021.30
2019-02-16T07:20:24.226Z,1021.25
2019-02-16T07:21:24.175Z,1021.27
2019-02-16T07:22:24.188Z,1021.31
2019-02-16T07:23:24.183Z,1021.24
2019-02-16T07:24:24.158Z,1021.30
2019-02-16T07:25:24.159Z,1021.27
2019-02-16T07:26:24.162Z,1021.29
2019-02-16T07:27:24.129Z,1021.24
2019-02-16T07:28:24.128Z,1021.27
2019-02-16T07:29:24.185Z,1021.17
2019-02-16T07:30:24.755Z,1021.21
2019-02-16T07:31:24.108Z,1021.16
2019-02-16T07:32:24.718Z,1021.12
2019-02-16T07:33:24.066Z,1021.14
2019-02-16T07:34:24.056Z,1021.10
2019-02-16T07:35:24.067Z,1021.13
2019-02-16T07:36:24.053Z,1021.09
2019-02-16T07:37:24.040Z,1021.05
2019-02-16T07:38:24.038Z,1021.06
2019-02-16T07:39:33.047Z,1021.05
2019-02-16T07:40:24.049Z,1021.02
2019-02-16T07:41:24.017Z,1021.05
2019-02-16T07:42:24.000Z,1021.01
2019-02-16T07:43:31.843Z,1021.06
2019-02-16T07:44:23.956Z,1020.99
2019-02-16T07:45:31.141Z,1020.98
2019-02-16T07:46:31.962Z,1021.04
2019-02-16T07:47:31.056Z,1021.02
2019-02-16T07:48:31.089Z,1021.04
2019-02-16T07:49:32.445Z,1020.99
2019-02-16T07:50:30.944Z,1021.03
2019-02-16T07:51:31.933Z,1021.11
2019-02-16T07:52:31.447Z,1021.07
2019-02-16T07:53:31.871Z,1021.09
2019-02-16T07:54:31.890Z,1021.05
2019-02-16T07:55:30.891Z,1021.05
2019-02-16T07:56:23.856Z,1021.06
2019-02-16T07:57:23.841Z,1021.08
2019-02-16T07:58:24.497Z,1021.08
2019-02-16T07:59:23.850Z,1021.02
2019-02-16T08:00:23.771Z,1021.05
2019-02-16T08:01:23.777Z,1021.04
2019-02-16T08:02:23.757Z,1021.02
2019-02-16T08:03:23.768Z,1021.05
2019-02-16T08:04:23.722Z,1021.12
2019-02-16T08:05:23.731Z,1021.13
2019-02-16T08:06:23.765Z,1021.03
2019-02-16T08:07:23.734Z,1021.06
2019-02-16T08:08:23.687Z,1020.98
2019-02-16T08:09:23.691Z,1021.02
2019-02-16T08:10:23.678Z,1021.00
2019-02-16T08:11:23.706Z,1020.95
2019-02-16T08:12:23.668Z,1020.97
2019-02-16T08:13:23.646Z,1020.89
2019-02-16T08:14:23.617Z,1020.90
2019-02-16T08:15:23.672Z,1020.84
2019-02-16T08:16:23.620Z,1020.87
2019-02-16T08:17:23.607Z,1020.83
2019-02-16T08:18:23.595Z,1020.84
2019-02-16T08:19:23.572Z,1020.80
2019-02-16T08:20:23.559Z,1020.75
2019-02-16T08:21:24.502Z,1020.76
2019-02-16T08:22:23.551Z,1020.83
2019-02-16T08:23:23.550Z,1020.81
2019-02-16T08:24:23.520Z,1020.82
2019-02-16T08:25:23.511Z,1020.80
2019-02-16T08:26:23.528Z,1020.79
2019-02-16T08:27:23.479Z,1020.82
2019-02-16T08:28:23.479Z,1020.76
2019-02-16T08:29:23.485Z,1020.84
2019-02-16T08:30:23.463Z,1020.77
2019-02-16T08:31:23.532Z,1020.74
2019-02-16T08:32:23.468Z,1020.77
2019-02-16T08:33:23.403Z,1020.75
2019-02-16T08:34:23.418Z,1020.73
2019-02-16T08:35:23.478Z,1020.73
2019-02-16T08:36:23.401Z,1020.73
2019-02-16T08:37:23.427Z,1020.73
2019-02-16T08:38:23.355Z,1020.69
2019-02-16T08:39:23.341Z,1020.66
2019-02-16T08:40:23.350Z,1020.71
2019-02-16T08:41:23.373Z,1020.71
2019-02-16T08:42:23.539Z,1020.71
2019-02-16T08:43:23.348Z,1020.71
2019-02-16T08:44:23.319Z,1020.72
2019-02-16T08:45:23.305Z,1020.69
2019-02-16T08:46:23.277Z,1020.65
2019-02-16T08:47:23.287Z,1020.68
2019-02-16T08:48:23.265Z,1020.69
2019-02-16T08:49:23.244Z,1020.62
2019-02-16T08:50:23.293Z,1020.64
2019-02-16T08:51:31.070Z,1020.64
2019-02-16T08:52:30.606Z,1020.64
2019-02-16T08:53:30.284Z,1020.68
2019-02-16T08:54:23.246Z,1020.68
2019-02-16T08:55:31.202Z,1020.67
2019-02-16T08:56:23.185Z,1020.64
2019-02-16T08:57:23.179Z,1020.67
2019-02-16T08:58:23.263Z,1020.69
2019-02-16T08:59:23.144Z,1020.61
2019-02-16T09:00:23.150Z,1020.63
2019-02-16T09:01:23.090Z,1020.61
2019-02-16T09:02:23.111Z,1020.60
2019-02-16T09:03:23.095Z,1020.61
2019-02-16T09:04:23.111Z,1020.58
2019-02-16T09:05:23.143Z,1020.57
2019-02-16T09:06:23.068Z,1020.60
2019-02-16T09:07:23.085Z,1020.55
2019-02-16T09:08:23.063Z,1020.64
2019-02-16T09:09:23.120Z,1020.60
2019-02-16T09:10:23.056Z,1020.58
2019-02-16T09:11:23.041Z,1020.55
2019-02-16T09:12:23.031Z,1020.51
2019-02-16T09:13:23.028Z,1020.56
2019-02-16T09:14:23.010Z,1020.56
2019-02-16T09:15:23.139Z,1020.58
2019-02-16T09:16:22.963Z,1020.52
2019-02-16T09:17:23.076Z,1020.53
2019-02-16T09:18:22.929Z,1020.58
2019-02-16T09:19:22.931Z,1020.59
2019-02-16T09:20:22.919Z,1020.54
2019-02-16T09:21:22.917Z,1020.57
2019-02-16T09:22:22.894Z,1020.62
2019-02-16T09:23:22.909Z,1020.57
2019-02-16T09:24:22.855Z,1020.60
2019-02-16T09:25:29.891Z,1020.63
2019-02-16T09:26:22.838Z,1020.61
2019-02-16T09:27:22.868Z,1020.62
2019-02-16T09:28:22.843Z,1020.61
2019-02-16T09:29:22.791Z,1020.60
2019-02-16T09:30:22.801Z,1020.62
2019-02-16T09:31:22.795Z,1020.56
2019-02-16T09:32:22.777Z,1020.59
2019-02-16T09:33:22.770Z,1020.51
2019-02-16T09:34:22.747Z,1020.56
2019-02-16T09:35:22.738Z,1020.59
2019-02-16T09:36:22.737Z,1020.55
2019-02-16T09:37:22.713Z,1020.59
2019-02-16T09:38:22.756Z,1020.57
2019-02-16T09:39:22.720Z,1020.58
2019-02-16T09:40:22.686Z,1020.53
2019-02-16T09:41:22.673Z,1020.52
2019-02-16T09:42:22.677Z,1020.55
2019-02-16T09:43:22.672Z,1020.62
2019-02-16T09:44:22.637Z,1020.61
2019-02-16T09:45:22.628Z,1020.61
2019-02-16T09:46:22.624Z,1020.50
2019-02-16T09:47:22.613Z,1020.56
2019-02-16T09:48:22.632Z,1020.53
2019-02-16T09:49:22.616Z,1020.59
2019-02-16T09:50:22.584Z,1020.52
2019-02-16T09:51:22.554Z,1020.59
2019-02-16T09:52:31.982Z,1020.55
2019-02-16T09:53:22.544Z,1020.53
2019-02-16T09:54:22.568Z,1020.57
2019-02-16T09:55:22.593Z,1020.53
2019-02-16T09:56:22.534Z,1020.54
2019-02-16T09:57:22.492Z,1020.52
2019-02-16T09:58:22.481Z,1020.59
2019-02-16T09:59:22.486Z,1020.53
2019-02-16T10:00:22.484Z,1020.47
2019-02-16T10:01:22.463Z,1020.56
2019-02-16T10:02:22.476Z,1020.53
2019-02-16T10:03:22.442Z,1020.52
2019-02-16T10:04:22.452Z,1020.52
2019-02-16T10:05:22.470Z,1020.46
2019-02-16T10:06:22.406Z,1020.42
2019-02-16T10:07:22.401Z,1020.52
2019-02-16T10:08:22.413Z,1020.49
2019-02-16T10:09:22.380Z,1020.55
2019-02-16T10:10:22.387Z,1020.55
2019-02-16T10:11:22.361Z,1020.56
2019-02-16T10:12:22.322Z,1020.57
2019-02-16T10:13:22.346Z,1020.58
2019-02-16T10:14:22.331Z,1020.53
2019-02-16T10:15:22.341Z,1020.51
2019-02-16T10:16:22.296Z,1020.53
2019-02-16T10:17:22.294Z,1020.52
2019-02-16T10:18:22.277Z,1020.46
2019-02-16T10:19:22.281Z,1020.46
2019-02-16T10:20:22.264Z,1020.44
2019-02-16T10:21:22.233Z,1020.41
2019-02-16T10:22:22.230Z,1020.40
2019-02-16T10:23:22.214Z,1020.33
2019-02-16T10:24:22.214Z,1020.35
2019-02-16T10:25:22.245Z,1020.37
2019-02-16T10:26:22.195Z,1020.42
2019-02-16T10:27:22.185Z,1020.41
2019-02-16T10:28:22.177Z,1020.38
2019-02-16T10:29:23.211Z,1020.34
2019-02-16T10:30:22.150Z,1020.29
2019-02-16T10:31:22.137Z,1020.39
2019-02-16T10:32:22.130Z,1020.27
2019-02-16T10:33:22.120Z,1020.29
2019-02-16T10:34:22.247Z,1020.32
2019-02-16T10:35:22.093Z,1020.30
2019-02-16T10:36:22.105Z,1020.22
2019-02-16T10:37:22.095Z,1020.19
2019-02-16T10:38:22.694Z,1020.18
2019-02-16T10:39:22.050Z,1020.18
2019-02-16T10:40:22.166Z,1020.23
2019-02-16T10:41:22.034Z,1020.18
2019-02-16T10:42:22.020Z,1020.19
2019-02-16T10:43:21.998Z,1020.19
2019-02-16T10:44:22.006Z,1020.21
2019-02-16T10:45:22.058Z,1020.22
2019-02-16T10:46:23.792Z,1020.23
2019-02-16T10:47:21.996Z,1020.17
2019-02-16T10:48:21.960Z,1020.23
2019-02-16T10:49:30.164Z,1020.17
2019-02-16T10:50:22.135Z,1020.16
2019-02-16T10:52:39.467Z,1020.11
2019-02-16T10:53:39.547Z,1020.08
2019-02-16T10:54:39.536Z,1020.04
2019-02-16T10:55:39.459Z,1020.03
2019-02-16T10:56:39.430Z,1020.00
2019-02-16T10:57:39.495Z,1020.03
2019-02-16T10:58:39.555Z,1019.99
2019-02-16T10:59:39.440Z,1019.99
2019-02-16T11:00:47.508Z,1020.00
2019-02-16T11:01:39.681Z,1019.93
2019-02-16T11:02:39.947Z,1019.94
2019-02-16T11:03:39.409Z,1019.90
2019-02-16T11:04:39.370Z,1019.94
2019-02-16T11:05:39.379Z,1019.98
2019-02-16T11:06:39.336Z,1019.88
2019-02-16T11:07:39.858Z,1019.94
2019-02-16T11:08:39.326Z,1019.92
2019-02-16T11:09:39.291Z,1019.95
2019-02-16T11:10:39.374Z,1019.92
2019-02-16T11:11:39.323Z,1019.91
2019-02-16T11:12:39.273Z,1019.91
2019-02-16T11:13:40.256Z,1019.97
2019-02-16T11:14:39.266Z,1019.97
2019-02-16T11:15:39.268Z,1019.95
2019-02-16T11:16:39.235Z,1019.98
2019-02-16T11:17:39.210Z,1019.99
2019-02-16T11:18:39.207Z,1020.05
2019-02-16T11:19:39.215Z,1020.07
2019-02-16T11:20:39.211Z,1020.05
2019-02-16T11:21:39.886Z,1020.03
2019-02-16T11:22:39.184Z,1020.04
2019-02-16T11:23:39.148Z,1020.06
2019-02-16T11:24:39.135Z,1020.09
2019-02-16T11:25:39.143Z,1020.09
2019-02-16T11:26:39.147Z,1020.04
2019-02-16T11:27:47.907Z,1020.10
2019-02-16T11:28:46.296Z,1020.10
2019-02-16T11:29:47.144Z,1020.11
2019-02-16T11:30:46.230Z,1020.12
2019-02-16T11:31:46.127Z,1020.04
2019-02-16T11:32:46.208Z,1020.09
2019-02-16T11:33:48.064Z,1020.03
2019-02-16T11:34:48.137Z,1020.04
2019-02-16T11:35:46.303Z,1020.04
2019-02-16T11:36:48.131Z,1020.12
2019-02-16T11:37:39.090Z,1020.04
2019-02-16T11:38:47.676Z,1020.04
2019-02-16T11:39:47.755Z,1020.03
2019-02-16T11:40:46.302Z,1019.99
2019-02-16T11:41:46.075Z,1019.98
2019-02-16T11:42:39.121Z,1019.98
2019-02-16T11:43:40.964Z,1019.97
2019-02-16T11:44:38.917Z,1019.99
2019-02-16T11:45:38.945Z,1019.94
2019-02-16T11:46:38.892Z,1019.94
2019-02-16T11:47:38.920Z,1019.88
2019-02-16T11:48:38.870Z,1019.93
2019-02-16T11:49:38.871Z,1019.90
2019-02-16T11:50:38.896Z,1019.84
2019-02-16T11:51:38.855Z,1019.88
2019-02-16T11:52:38.859Z,1019.89
2019-02-16T11:53:38.836Z,1019.90
2019-02-16T11:54:45.452Z,1019.86
2019-02-16T11:55:39.878Z,1019.82
2019-02-16T11:56:38.812Z,1019.90
2019-02-16T11:57:38.807Z,1019.84
2019-02-16T11:58:38.794Z,1019.79
2019-02-16T11:59:38.803Z,1019.76
2019-02-16T12:00:40.265Z,1019.75
2019-02-16T12:01:40.728Z,1019.73
2019-02-16T12:02:39.963Z,1019.74
2019-02-16T12:03:38.754Z,1019.76
2019-02-16T12:04:38.721Z,1019.73
2019-02-16T12:05:38.714Z,1019.77
2019-02-16T12:06:38.758Z,1019.80
2019-02-16T12:07:38.705Z,1019.79
2019-02-16T12:08:38.712Z,1019.85
2019-02-16T12:09:38.790Z,1019.89
2019-02-16T12:10:38.695Z,1019.87
2019-02-16T12:11:38.715Z,1019.92
2019-02-16T12:12:38.638Z,1019.88
2019-02-16T12:13:38.650Z,1019.83
2019-02-16T12:14:39.171Z,1019.83
2019-02-16T12:15:38.616Z,1019.87
2019-02-16T12:16:38.693Z,1019.92
2019-02-16T12:17:38.579Z,1019.90
2019-02-16T12:18:38.569Z,1019.84
2019-02-16T12:19:38.582Z,1019.84
2019-02-16T12:20:38.585Z,1019.92
2019-02-16T12:21:38.587Z,1019.82
2019-02-16T12:22:38.542Z,1019.85
2019-02-16T12:23:38.512Z,1019.79